sensor_id;sensor_type;location;lat;lon;timestamp;P1;durP1;ratioP1;P2;durP2;ratioP2
46288;SDS011;63105;46.158;14.604;2022-10-31T00:01:48;13.00;;;8.05;;
46288;SDS011;63105;46.158;14.604;2022-10-31T00:04:14;11.93;;;7.88;;
46288;SDS011;63105;46.158;14.604;2022-10-31T00:06:39;13.63;;;7.10;;
46288;SDS011;63105;46.158;14.604;2022-10-31T00:09:04;12.88;;;7.57;;
46288;SDS011;63105;46.158;14.604;2022-10-31T00:11:30;11.93;;;7.20;;
46288;SDS011;63105;46.158;14.604;2022-10-31T00:13:56;15.57;;;7.15;;
46288;SDS011;63105;46.158;14.604;2022-10-31T00:16:22;12.75;;;6.88;;
46288;SDS011;63105;46.158;14.604;2022-10-31T00:18:51;13.30;;;7.30;;
46288;SDS011;63105;46.158;14.604;2022-10-31T00:21:17;12.52;;;7.18;;
46288;SDS011;63105;46.158;14.604;2022-10-31T00:23:42;12.30;;;7.18;;
46288;SDS011;63105;46.158;14.604;2022-10-31T00:26:07;11.13;;;6.90;;
46288;SDS011;63105;46.158;14.604;2022-10-31T00:28:33;11.57;;;7.07;;
46288;SDS011;63105;46.158;14.604;2022-10-31T00:31:02;12.48;;;6.60;;
46288;SDS011;63105;46.158;14.604;2022-10-31T00:33:28;11.52;;;6.90;;
46288;SDS011;63105;46.158;14.604;2022-10-31T00:35:53;10.60;;;6.82;;
46288;SDS011;63105;46.158;14.604;2022-10-31T00:38:18;12.32;;;6.70;;
46288;SDS011;63105;46.158;14.604;2022-10-31T00:40:43;13.13;;;7.10;;
46288;SDS011;63105;46.158;14.604;2022-10-31T00:43:09;13.70;;;6.90;;
46288;SDS011;63105;46.158;14.604;2022-10-31T00:45:34;12.35;;;6.90;;
46288;SDS011;63105;46.158;14.604;2022-10-31T00:47:59;15.17;;;7.50;;
46288;SDS011;63105;46.158;14.604;2022-10-31T00:50:24;12.70;;;7.60;;
46288;SDS011;63105;46.158;14.604;2022-10-31T00:52:49;12.63;;;6.93;;
46288;SDS011;63105;46.158;14.604;2022-10-31T00:55:15;12.40;;;7.28;;
46288;SDS011;63105;46.158;14.604;2022-10-31T00:57:40;11.53;;;7.27;;
46288;SDS011;63105;46.158;14.604;2022-10-31T01:00:05;11.97;;;6.57;;
46288;SDS011;63105;46.158;14.604;2022-10-31T01:02:31;13.55;;;7.00;;
46288;SDS011;63105;46.158;14.604;2022-10-31T01:04:56;13.63;;;7.18;;
46288;SDS011;63105;46.158;14.604;2022-10-31T01:07:21;13.13;;;7.45;;
46288;SDS011;63105;46.158;14.604;2022-10-31T01:09:46;13.37;;;7.47;;
46288;SDS011;63105;46.158;14.604;2022-10-31T01:12:11;15.63;;;7.23;;
46288;SDS011;63105;46.158;14.604;2022-10-31T01:14:37;13.90;;;7.45;;
46288;SDS011;63105;46.158;14.604;2022-10-31T01:17:02;12.80;;;7.00;;
46288;SDS011;63105;46.158;14.604;2022-10-31T01:19:27;14.38;;;7.35;;
46288;SDS011;63105;46.158;14.604;2022-10-31T01:21:53;14.13;;;6.65;;
46288;SDS011;63105;46.158;14.604;2022-10-31T01:24:19;14.38;;;7.18;;
46288;SDS011;63105;46.158;14.604;2022-10-31T01:26:44;13.23;;;7.20;;
46288;SDS011;63105;46.158;14.604;2022-10-31T01:29:09;11.23;;;6.90;;
46288;SDS011;63105;46.158;14.604;2022-10-31T01:31:36;10.85;;;6.70;;
46288;SDS011;63105;46.158;14.604;2022-10-31T01:34:01;11.25;;;6.70;;
46288;SDS011;63105;46.158;14.604;2022-10-31T01:36:27;12.30;;;6.93;;
46288;SDS011;63105;46.158;14.604;2022-10-31T01:38:54;11.75;;;6.85;;
46288;SDS011;63105;46.158;14.604;2022-10-31T01:41:21;10.70;;;6.40;;
46288;SDS011;63105;46.158;14.604;2022-10-31T01:46:12;10.82;;;7.00;;
46288;SDS011;63105;46.158;14.604;2022-10-31T01:48:38;12.90;;;6.70;;
46288;SDS011;63105;46.158;14.604;2022-10-31T01:51:04;10.85;;;6.90;;
46288;SDS011;63105;46.158;14.604;2022-10-31T01:53:31;12.35;;;6.40;;
46288;SDS011;63105;46.158;14.604;2022-10-31T01:55:56;10.70;;;6.10;;
46288;SDS011;63105;46.158;14.604;2022-10-31T01:58:22;12.38;;;6.72;;
46288;SDS011;63105;46.158;14.604;2022-10-31T02:00:51;11.90;;;6.68;;
46288;SDS011;63105;46.158;14.604;2022-10-31T02:03:18;10.88;;;5.97;;
46288;SDS011;63105;46.158;14.604;2022-10-31T02:05:45;11.45;;;6.25;;
46288;SDS011;63105;46.158;14.604;2022-10-31T02:08:29;9.50;;;5.90;;
46288;SDS011;63105;46.158;14.604;2022-10-31T02:10:58;9.75;;;5.82;;
46288;SDS011;63105;46.158;14.604;2022-10-31T02:13:24;10.75;;;6.15;;
46288;SDS011;63105;46.158;14.604;2022-10-31T02:15:51;8.30;;;5.55;;
46288;SDS011;63105;46.158;14.604;2022-10-31T02:18:17;12.40;;;6.10;;
46288;SDS011;63105;46.158;14.604;2022-10-31T02:21:07;9.60;;;5.88;;
46288;SDS011;63105;46.158;14.604;2022-10-31T02:23:33;10.77;;;5.40;;
46288;SDS011;63105;46.158;14.604;2022-10-31T02:31:23;10.10;;;6.00;;
46288;SDS011;63105;46.158;14.604;2022-10-31T02:33:55;10.23;;;6.10;;
46288;SDS011;63105;46.158;14.604;2022-10-31T02:36:35;10.32;;;5.65;;
46288;SDS011;63105;46.158;14.604;2022-10-31T02:39:06;9.20;;;5.28;;
46288;SDS011;63105;46.158;14.604;2022-10-31T02:41:58;8.63;;;4.93;;
46288;SDS011;63105;46.158;14.604;2022-10-31T02:47:14;10.63;;;5.85;;
46288;SDS011;63105;46.158;14.604;2022-10-31T02:52:17;9.02;;;4.93;;
46288;SDS011;63105;46.158;14.604;2022-10-31T02:54:42;9.88;;;5.68;;
46288;SDS011;63105;46.158;14.604;2022-10-31T02:57:08;7.70;;;4.68;;
46288;SDS011;63105;46.158;14.604;2022-10-31T02:59:34;9.82;;;5.03;;
46288;SDS011;63105;46.158;14.604;2022-10-31T03:02:06;7.35;;;4.72;;
46288;SDS011;63105;46.158;14.604;2022-10-31T03:04:40;8.68;;;4.82;;
46288;SDS011;63105;46.158;14.604;2022-10-31T03:09:59;8.43;;;4.17;;
46288;SDS011;63105;46.158;14.604;2022-10-31T03:12:29;6.95;;;4.35;;
46288;SDS011;63105;46.158;14.604;2022-10-31T03:17:43;6.90;;;4.25;;
46288;SDS011;63105;46.158;14.604;2022-10-31T03:20:11;8.00;;;4.40;;
46288;SDS011;63105;46.158;14.604;2022-10-31T03:22:36;7.47;;;4.30;;
46288;SDS011;63105;46.158;14.604;2022-10-31T03:25:02;9.45;;;4.40;;
46288;SDS011;63105;46.158;14.604;2022-10-31T03:27:30;11.07;;;4.78;;
46288;SDS011;63105;46.158;14.604;2022-10-31T03:29:57;8.68;;;4.80;;
46288;SDS011;63105;46.158;14.604;2022-10-31T03:32:25;9.18;;;4.93;;
46288;SDS011;63105;46.158;14.604;2022-10-31T03:34:53;9.70;;;5.20;;
46288;SDS011;63105;46.158;14.604;2022-10-31T03:37:21;10.75;;;5.07;;
46288;SDS011;63105;46.158;14.604;2022-10-31T03:39:47;9.60;;;4.90;;
46288;SDS011;63105;46.158;14.604;2022-10-31T03:44:38;10.35;;;5.50;;
46288;SDS011;63105;46.158;14.604;2022-10-31T03:47:06;9.68;;;4.80;;
46288;SDS011;63105;46.158;14.604;2022-10-31T03:49:31;9.85;;;5.30;;
46288;SDS011;63105;46.158;14.604;2022-10-31T03:51:59;8.75;;;5.25;;
46288;SDS011;63105;46.158;14.604;2022-10-31T03:54:32;11.38;;;4.90;;
46288;SDS011;63105;46.158;14.604;2022-10-31T03:59:47;10.15;;;5.10;;
46288;SDS011;63105;46.158;14.604;2022-10-31T04:02:16;10.85;;;5.38;;
46288;SDS011;63105;46.158;14.604;2022-10-31T04:04:42;10.18;;;4.97;;
46288;SDS011;63105;46.158;14.604;2022-10-31T04:07:09;9.43;;;4.70;;
46288;SDS011;63105;46.158;14.604;2022-10-31T04:09:36;10.30;;;4.45;;
46288;SDS011;63105;46.158;14.604;2022-10-31T04:12:02;6.97;;;4.20;;
46288;SDS011;63105;46.158;14.604;2022-10-31T04:14:31;6.40;;;4.30;;
46288;SDS011;63105;46.158;14.604;2022-10-31T04:16:57;8.75;;;4.13;;
46288;SDS011;63105;46.158;14.604;2022-10-31T04:19:22;10.82;;;4.63;;
46288;SDS011;63105;46.158;14.604;2022-10-31T04:21:47;9.03;;;4.20;;
46288;SDS011;63105;46.158;14.604;2022-10-31T04:24:12;9.07;;;4.43;;
46288;SDS011;63105;46.158;14.604;2022-10-31T04:26:38;8.97;;;4.30;;
46288;SDS011;63105;46.158;14.604;2022-10-31T04:29:03;9.13;;;4.57;;
46288;SDS011;63105;46.158;14.604;2022-10-31T04:31:28;7.25;;;4.35;;
46288;SDS011;63105;46.158;14.604;2022-10-31T04:33:53;8.17;;;4.30;;
46288;SDS011;63105;46.158;14.604;2022-10-31T04:36:18;7.93;;;4.70;;
46288;SDS011;63105;46.158;14.604;2022-10-31T04:38:44;9.38;;;4.70;;
46288;SDS011;63105;46.158;14.604;2022-10-31T04:41:09;8.70;;;4.40;;
46288;SDS011;63105;46.158;14.604;2022-10-31T04:43:34;8.43;;;4.60;;
46288;SDS011;63105;46.158;14.604;2022-10-31T04:45:59;9.05;;;5.07;;
46288;SDS011;63105;46.158;14.604;2022-10-31T04:48:25;9.13;;;5.13;;
46288;SDS011;63105;46.158;14.604;2022-10-31T04:50:50;9.07;;;4.80;;
46288;SDS011;63105;46.158;14.604;2022-10-31T04:53:15;7.97;;;4.77;;
46288;SDS011;63105;46.158;14.604;2022-10-31T04:55:40;8.50;;;4.93;;
46288;SDS011;63105;46.158;14.604;2022-10-31T04:58:05;7.78;;;4.78;;
46288;SDS011;63105;46.158;14.604;2022-10-31T05:00:31;8.70;;;4.72;;
46288;SDS011;63105;46.158;14.604;2022-10-31T05:02:57;10.05;;;4.88;;
46288;SDS011;63105;46.158;14.604;2022-10-31T05:05:23;7.47;;;4.72;;
46288;SDS011;63105;46.158;14.604;2022-10-31T05:07:49;10.23;;;5.13;;
46288;SDS011;63105;46.158;14.604;2022-10-31T05:10:16;10.43;;;4.80;;
46288;SDS011;63105;46.158;14.604;2022-10-31T05:12:45;8.52;;;5.43;;
46288;SDS011;63105;46.158;14.604;2022-10-31T05:15:11;10.52;;;5.00;;
46288;SDS011;63105;46.158;14.604;2022-10-31T05:17:36;7.85;;;4.75;;
46288;SDS011;63105;46.158;14.604;2022-10-31T05:20:01;10.47;;;5.23;;
46288;SDS011;63105;46.158;14.604;2022-10-31T05:22:26;13.07;;;5.75;;
46288;SDS011;63105;46.158;14.604;2022-10-31T05:24:51;9.50;;;5.10;;
46288;SDS011;63105;46.158;14.604;2022-10-31T05:27:17;9.77;;;5.07;;
46288;SDS011;63105;46.158;14.604;2022-10-31T05:29:42;9.00;;;4.97;;
46288;SDS011;63105;46.158;14.604;2022-10-31T05:32:07;10.40;;;4.75;;
46288;SDS011;63105;46.158;14.604;2022-10-31T05:34:32;9.07;;;4.95;;
46288;SDS011;63105;46.158;14.604;2022-10-31T05:36:57;10.63;;;5.23;;
46288;SDS011;63105;46.158;14.604;2022-10-31T05:39:23;10.23;;;5.10;;
46288;SDS011;63105;46.158;14.604;2022-10-31T05:41:48;9.85;;;4.90;;
46288;SDS011;63105;46.158;14.604;2022-10-31T05:44:13;11.10;;;5.03;;
46288;SDS011;63105;46.158;14.604;2022-10-31T05:46:38;10.52;;;5.00;;
46288;SDS011;63105;46.158;14.604;2022-10-31T05:49:03;8.93;;;5.20;;
46288;SDS011;63105;46.158;14.604;2022-10-31T05:51:29;9.87;;;4.73;;
46288;SDS011;63105;46.158;14.604;2022-10-31T05:53:54;8.07;;;4.82;;
46288;SDS011;63105;46.158;14.604;2022-10-31T05:56:19;9.13;;;4.70;;
46288;SDS011;63105;46.158;14.604;2022-10-31T05:58:44;8.67;;;5.13;;
46288;SDS011;63105;46.158;14.604;2022-10-31T06:01:09;10.20;;;4.90;;
46288;SDS011;63105;46.158;14.604;2022-10-31T06:03:35;10.38;;;4.95;;
46288;SDS011;63105;46.158;14.604;2022-10-31T06:06:00;9.63;;;4.88;;
46288;SDS011;63105;46.158;14.604;2022-10-31T06:08:25;9.63;;;5.10;;
46288;SDS011;63105;46.158;14.604;2022-10-31T06:10:50;8.88;;;4.78;;
46288;SDS011;63105;46.158;14.604;2022-10-31T06:13:17;8.90;;;5.00;;
46288;SDS011;63105;46.158;14.604;2022-10-31T06:15:43;9.30;;;5.03;;
46288;SDS011;63105;46.158;14.604;2022-10-31T06:18:08;12.55;;;5.03;;
46288;SDS011;63105;46.158;14.604;2022-10-31T06:20:33;9.02;;;5.20;;
46288;SDS011;63105;46.158;14.604;2022-10-31T06:22:58;10.57;;;4.90;;
46288;SDS011;63105;46.158;14.604;2022-10-31T06:25:24;8.98;;;4.60;;
46288;SDS011;63105;46.158;14.604;2022-10-31T06:27:49;8.55;;;5.07;;
46288;SDS011;63105;46.158;14.604;2022-10-31T06:30:14;10.80;;;5.07;;
46288;SDS011;63105;46.158;14.604;2022-10-31T06:32:40;9.40;;;4.60;;
46288;SDS011;63105;46.158;14.604;2022-10-31T06:35:05;9.10;;;5.00;;
46288;SDS011;63105;46.158;14.604;2022-10-31T06:37:30;11.30;;;4.82;;
46288;SDS011;63105;46.158;14.604;2022-10-31T06:39:56;11.18;;;5.53;;
46288;SDS011;63105;46.158;14.604;2022-10-31T06:42:21;8.90;;;5.30;;
46288;SDS011;63105;46.158;14.604;2022-10-31T06:44:46;8.85;;;5.22;;
46288;SDS011;63105;46.158;14.604;2022-10-31T06:47:11;9.93;;;5.30;;
46288;SDS011;63105;46.158;14.604;2022-10-31T06:49:36;9.27;;;5.22;;
46288;SDS011;63105;46.158;14.604;2022-10-31T06:52:02;11.27;;;5.30;;
46288;SDS011;63105;46.158;14.604;2022-10-31T06:54:27;8.68;;;4.97;;
46288;SDS011;63105;46.158;14.604;2022-10-31T06:56:52;9.45;;;5.32;;
46288;SDS011;63105;46.158;14.604;2022-10-31T06:59:17;10.90;;;5.13;;
46288;SDS011;63105;46.158;14.604;2022-10-31T07:01:43;10.27;;;5.57;;
46288;SDS011;63105;46.158;14.604;2022-10-31T07:04:09;9.75;;;5.55;;
46288;SDS011;63105;46.158;14.604;2022-10-31T07:06:34;10.95;;;5.95;;
46288;SDS011;63105;46.158;14.604;2022-10-31T07:08:59;11.30;;;5.83;;
46288;SDS011;63105;46.158;14.604;2022-10-31T07:11:26;10.65;;;5.53;;
46288;SDS011;63105;46.158;14.604;2022-10-31T07:13:51;9.23;;;5.33;;
46288;SDS011;63105;46.158;14.604;2022-10-31T07:16:16;11.47;;;5.93;;
46288;SDS011;63105;46.158;14.604;2022-10-31T07:18:41;11.40;;;6.20;;
46288;SDS011;63105;46.158;14.604;2022-10-31T07:21:06;9.35;;;5.65;;
46288;SDS011;63105;46.158;14.604;2022-10-31T07:23:32;10.55;;;6.18;;
46288;SDS011;63105;46.158;14.604;2022-10-31T07:25:57;11.00;;;6.03;;
46288;SDS011;63105;46.158;14.604;2022-10-31T07:28:23;10.25;;;6.00;;
46288;SDS011;63105;46.158;14.604;2022-10-31T07:30:49;10.30;;;6.03;;
46288;SDS011;63105;46.158;14.604;2022-10-31T07:33:15;8.30;;;5.30;;
46288;SDS011;63105;46.158;14.604;2022-10-31T07:35:40;10.57;;;6.00;;
46288;SDS011;63105;46.158;14.604;2022-10-31T07:38:09;9.47;;;6.23;;
46288;SDS011;63105;46.158;14.604;2022-10-31T07:40:34;10.07;;;5.88;;
46288;SDS011;63105;46.158;14.604;2022-10-31T07:42:59;9.55;;;5.93;;
46288;SDS011;63105;46.158;14.604;2022-10-31T07:45:24;9.73;;;5.77;;
46288;SDS011;63105;46.158;14.604;2022-10-31T07:47:50;11.03;;;6.27;;
46288;SDS011;63105;46.158;14.604;2022-10-31T07:50:17;8.98;;;5.93;;
46288;SDS011;63105;46.158;14.604;2022-10-31T07:52:43;9.50;;;5.95;;
46288;SDS011;63105;46.158;14.604;2022-10-31T07:55:08;7.78;;;5.07;;
46288;SDS011;63105;46.158;14.604;2022-10-31T07:57:34;9.18;;;5.40;;
46288;SDS011;63105;46.158;14.604;2022-10-31T07:59:59;9.23;;;5.65;;
46288;SDS011;63105;46.158;14.604;2022-10-31T08:02:24;7.07;;;5.07;;
46288;SDS011;63105;46.158;14.604;2022-10-31T08:04:50;8.13;;;5.32;;
46288;SDS011;63105;46.158;14.604;2022-10-31T08:07:15;8.23;;;5.20;;
46288;SDS011;63105;46.158;14.604;2022-10-31T08:09:40;8.32;;;5.78;;
46288;SDS011;63105;46.158;14.604;2022-10-31T08:12:06;9.52;;;5.25;;
46288;SDS011;63105;46.158;14.604;2022-10-31T08:14:31;8.43;;;5.43;;
46288;SDS011;63105;46.158;14.604;2022-10-31T08:16:56;8.30;;;5.35;;
46288;SDS011;63105;46.158;14.604;2022-10-31T08:19:21;8.05;;;5.20;;
46288;SDS011;63105;46.158;14.604;2022-10-31T08:21:50;8.33;;;5.30;;
46288;SDS011;63105;46.158;14.604;2022-10-31T08:24:15;9.50;;;5.90;;
46288;SDS011;63105;46.158;14.604;2022-10-31T08:26:40;8.18;;;5.47;;
46288;SDS011;63105;46.158;14.604;2022-10-31T08:29:05;9.03;;;5.47;;
46288;SDS011;63105;46.158;14.604;2022-10-31T08:31:30;8.38;;;5.25;;
46288;SDS011;63105;46.158;14.604;2022-10-31T08:33:56;7.88;;;5.55;;
46288;SDS011;63105;46.158;14.604;2022-10-31T08:36:21;7.73;;;5.47;;
46288;SDS011;63105;46.158;14.604;2022-10-31T08:38:46;8.77;;;5.50;;
46288;SDS011;63105;46.158;14.604;2022-10-31T08:41:12;9.73;;;5.30;;
46288;SDS011;63105;46.158;14.604;2022-10-31T08:43:37;8.87;;;5.70;;
46288;SDS011;63105;46.158;14.604;2022-10-31T08:46:02;9.50;;;5.90;;
46288;SDS011;63105;46.158;14.604;2022-10-31T08:48:28;9.75;;;6.10;;
46288;SDS011;63105;46.158;14.604;2022-10-31T08:50:55;9.93;;;5.90;;
46288;SDS011;63105;46.158;14.604;2022-10-31T08:53:20;10.25;;;5.82;;
46288;SDS011;63105;46.158;14.604;2022-10-31T08:55:47;7.93;;;5.18;;
46288;SDS011;63105;46.158;14.604;2022-10-31T08:58:13;9.40;;;5.28;;
46288;SDS011;63105;46.158;14.604;2022-10-31T09:00:38;9.98;;;5.22;;
46288;SDS011;63105;46.158;14.604;2022-10-31T09:03:11;9.30;;;5.90;;
46288;SDS011;63105;46.158;14.604;2022-10-31T09:05:37;9.05;;;5.50;;
46288;SDS011;63105;46.158;14.604;2022-10-31T09:08:03;12.00;;;5.22;;
46288;SDS011;63105;46.158;14.604;2022-10-31T09:10:29;7.47;;;5.15;;
46288;SDS011;63105;46.158;14.604;2022-10-31T09:12:55;9.75;;;6.03;;
46288;SDS011;63105;46.158;14.604;2022-10-31T09:15:21;14.32;;;9.05;;
46288;SDS011;63105;46.158;14.604;2022-10-31T09:17:49;12.32;;;6.22;;
46288;SDS011;63105;46.158;14.604;2022-10-31T09:20:14;11.13;;;6.25;;
46288;SDS011;63105;46.158;14.604;2022-10-31T09:22:40;10.80;;;6.57;;
46288;SDS011;63105;46.158;14.604;2022-10-31T09:25:05;9.43;;;6.40;;
46288;SDS011;63105;46.158;14.604;2022-10-31T09:27:30;9.18;;;5.82;;
46288;SDS011;63105;46.158;14.604;2022-10-31T09:29:56;11.93;;;6.40;;
46288;SDS011;63105;46.158;14.604;2022-10-31T09:32:21;12.77;;;6.43;;
46288;SDS011;63105;46.158;14.604;2022-10-31T09:34:46;11.30;;;6.68;;
46288;SDS011;63105;46.158;14.604;2022-10-31T09:37:11;9.13;;;6.30;;
46288;SDS011;63105;46.158;14.604;2022-10-31T09:39:36;9.97;;;6.40;;
46288;SDS011;63105;46.158;14.604;2022-10-31T09:42:09;9.60;;;6.28;;
46288;SDS011;63105;46.158;14.604;2022-10-31T09:47:16;11.65;;;7.05;;
46288;SDS011;63105;46.158;14.604;2022-10-31T09:52:28;10.70;;;6.10;;
46288;SDS011;63105;46.158;14.604;2022-10-31T09:55:00;12.52;;;8.32;;
46288;SDS011;63105;46.158;14.604;2022-10-31T09:57:28;13.40;;;8.80;;
46288;SDS011;63105;46.158;14.604;2022-10-31T09:59:54;9.25;;;5.80;;
46288;SDS011;63105;46.158;14.604;2022-10-31T10:04:53;9.63;;;5.13;;
46288;SDS011;63105;46.158;14.604;2022-10-31T10:07:25;11.60;;;5.60;;
46288;SDS011;63105;46.158;14.604;2022-10-31T10:09:53;10.98;;;4.95;;
46288;SDS011;63105;46.158;14.604;2022-10-31T10:25:47;8.77;;;4.57;;
46288;SDS011;63105;46.158;14.604;2022-10-31T10:28:22;13.57;;;4.75;;
46288;SDS011;63105;46.158;14.604;2022-10-31T10:30:49;10.63;;;4.90;;
46288;SDS011;63105;46.158;14.604;2022-10-31T10:33:23;11.77;;;5.85;;
46288;SDS011;63105;46.158;14.604;2022-10-31T10:35:53;7.75;;;4.40;;
46288;SDS011;63105;46.158;14.604;2022-10-31T10:40:48;9.38;;;4.85;;
46288;SDS011;63105;46.158;14.604;2022-10-31T10:45:55;8.82;;;4.72;;
46288;SDS011;63105;46.158;14.604;2022-10-31T10:49:02;12.63;;;5.80;;
46288;SDS011;63105;46.158;14.604;2022-10-31T10:54:02;8.68;;;4.90;;
46288;SDS011;63105;46.158;14.604;2022-10-31T10:56:45;7.32;;;4.57;;
46288;SDS011;63105;46.158;14.604;2022-10-31T10:59:12;9.60;;;4.75;;
46288;SDS011;63105;46.158;14.604;2022-10-31T11:01:38;8.43;;;4.32;;
46288;SDS011;63105;46.158;14.604;2022-10-31T11:04:07;11.63;;;5.10;;
46288;SDS011;63105;46.158;14.604;2022-10-31T11:06:38;9.20;;;4.30;;
46288;SDS011;63105;46.158;14.604;2022-10-31T11:09:09;8.87;;;4.07;;
46288;SDS011;63105;46.158;14.604;2022-10-31T11:11:35;9.98;;;4.60;;
46288;SDS011;63105;46.158;14.604;2022-10-31T11:14:05;8.95;;;4.25;;
46288;SDS011;63105;46.158;14.604;2022-10-31T11:16:33;9.00;;;4.38;;
46288;SDS011;63105;46.158;14.604;2022-10-31T11:19:33;10.63;;;4.82;;
46288;SDS011;63105;46.158;14.604;2022-10-31T11:21:52;7.85;;;4.05;;
46288;SDS011;63105;46.158;14.604;2022-10-31T11:24:18;8.15;;;3.97;;
46288;SDS011;63105;46.158;14.604;2022-10-31T11:26:46;9.00;;;4.00;;
46288;SDS011;63105;46.158;14.604;2022-10-31T11:29:21;7.65;;;4.07;;
46288;SDS011;63105;46.158;14.604;2022-10-31T11:31:47;8.45;;;3.90;;
46288;SDS011;63105;46.158;14.604;2022-10-31T11:34:36;9.77;;;4.72;;
46288;SDS011;63105;46.158;14.604;2022-10-31T11:39:25;9.52;;;4.55;;
46288;SDS011;63105;46.158;14.604;2022-10-31T11:41:51;9.63;;;4.70;;
46288;SDS011;63105;46.158;14.604;2022-10-31T11:44:21;10.23;;;4.28;;
46288;SDS011;63105;46.158;14.604;2022-10-31T11:46:57;8.95;;;4.07;;
46288;SDS011;63105;46.158;14.604;2022-10-31T11:49:36;8.25;;;3.58;;
46288;SDS011;63105;46.158;14.604;2022-10-31T11:52:12;8.93;;;3.53;;
46288;SDS011;63105;46.158;14.604;2022-10-31T11:54:42;14.85;;;5.18;;
46288;SDS011;63105;46.158;14.604;2022-10-31T11:57:29;12.90;;;5.30;;
46288;SDS011;63105;46.158;14.604;2022-10-31T11:59:58;11.63;;;4.60;;
46288;SDS011;63105;46.158;14.604;2022-10-31T12:02:24;9.10;;;4.82;;
46288;SDS011;63105;46.158;14.604;2022-10-31T12:05:01;8.18;;;3.78;;
46288;SDS011;63105;46.158;14.604;2022-10-31T12:07:27;8.27;;;3.97;;
46288;SDS011;63105;46.158;14.604;2022-10-31T12:09:52;8.93;;;3.63;;
46288;SDS011;63105;46.158;14.604;2022-10-31T12:17:15;9.88;;;4.40;;
46288;SDS011;63105;46.158;14.604;2022-10-31T12:32:24;14.07;;;5.40;;
46288;SDS011;63105;46.158;14.604;2022-10-31T12:42:34;12.17;;;4.47;;
46288;SDS011;63105;46.158;14.604;2022-10-31T12:52:51;8.50;;;3.90;;
46288;SDS011;63105;46.158;14.604;2022-10-31T12:55:30;10.15;;;3.72;;
46288;SDS011;63105;46.158;14.604;2022-10-31T12:57:58;11.25;;;3.85;;
46288;SDS011;63105;46.158;14.604;2022-10-31T13:00:25;10.52;;;4.35;;
46288;SDS011;63105;46.158;14.604;2022-10-31T13:02:55;12.85;;;4.57;;
46288;SDS011;63105;46.158;14.604;2022-10-31T13:05:24;10.85;;;3.70;;
46288;SDS011;63105;46.158;14.604;2022-10-31T13:10:23;12.52;;;4.10;;
46288;SDS011;63105;46.158;14.604;2022-10-31T13:12:51;9.95;;;3.97;;
46288;SDS011;63105;46.158;14.604;2022-10-31T13:15:18;13.88;;;4.35;;
46288;SDS011;63105;46.158;14.604;2022-10-31T13:17:49;9.60;;;3.83;;
46288;SDS011;63105;46.158;14.604;2022-10-31T13:22:42;16.10;;;5.00;;
46288;SDS011;63105;46.158;14.604;2022-10-31T13:30:15;11.98;;;4.18;;
46288;SDS011;63105;46.158;14.604;2022-10-31T13:32:42;15.95;;;4.50;;
46288;SDS011;63105;46.158;14.604;2022-10-31T13:35:12;13.43;;;4.30;;
46288;SDS011;63105;46.158;14.604;2022-10-31T13:37:44;15.63;;;4.35;;
46288;SDS011;63105;46.158;14.604;2022-10-31T13:40:14;9.27;;;3.08;;
46288;SDS011;63105;46.158;14.604;2022-10-31T13:45:15;5.93;;;2.88;;
46288;SDS011;63105;46.158;14.604;2022-10-31T13:47:41;10.57;;;3.90;;
46288;SDS011;63105;46.158;14.604;2022-10-31T13:52:45;10.10;;;3.60;;
46288;SDS011;63105;46.158;14.604;2022-10-31T13:57:55;12.25;;;4.07;;
46288;SDS011;63105;46.158;14.604;2022-10-31T14:02:49;12.17;;;3.77;;
46288;SDS011;63105;46.158;14.604;2022-10-31T14:05:28;13.43;;;4.15;;
46288;SDS011;63105;46.158;14.604;2022-10-31T14:07:54;11.77;;;4.13;;
46288;SDS011;63105;46.158;14.604;2022-10-31T14:10:27;11.95;;;4.00;;
46288;SDS011;63105;46.158;14.604;2022-10-31T14:12:53;14.27;;;4.45;;
46288;SDS011;63105;46.158;14.604;2022-10-31T14:17:52;8.50;;;3.00;;
46288;SDS011;63105;46.158;14.604;2022-10-31T14:22:43;9.37;;;3.00;;
46288;SDS011;63105;46.158;14.604;2022-10-31T14:27:52;12.73;;;3.78;;
46288;SDS011;63105;46.158;14.604;2022-10-31T14:30:19;12.57;;;3.97;;
46288;SDS011;63105;46.158;14.604;2022-10-31T14:32:51;13.93;;;4.55;;
46288;SDS011;63105;46.158;14.604;2022-10-31T14:35:17;14.57;;;4.97;;
46288;SDS011;63105;46.158;14.604;2022-10-31T14:38:19;10.93;;;3.80;;
46288;SDS011;63105;46.158;14.604;2022-10-31T14:50:27;8.03;;;2.87;;
46288;SDS011;63105;46.158;14.604;2022-10-31T14:52:56;9.02;;;2.80;;
46288;SDS011;63105;46.158;14.604;2022-10-31T14:55:22;9.82;;;2.67;;
46288;SDS011;63105;46.158;14.604;2022-10-31T14:57:52;11.07;;;2.97;;
46288;SDS011;63105;46.158;14.604;2022-10-31T15:00:19;8.98;;;3.00;;
46288;SDS011;63105;46.158;14.604;2022-10-31T15:05:22;8.55;;;2.70;;
46288;SDS011;63105;46.158;14.604;2022-10-31T15:07:49;7.95;;;2.70;;
46288;SDS011;63105;46.158;14.604;2022-10-31T15:10:19;10.77;;;3.35;;
46288;SDS011;63105;46.158;14.604;2022-10-31T15:12:44;10.07;;;3.03;;
46288;SDS011;63105;46.158;14.604;2022-10-31T15:15:10;15.60;;;5.33;;
46288;SDS011;63105;46.158;14.604;2022-10-31T15:17:41;12.25;;;4.35;;
46288;SDS011;63105;46.158;14.604;2022-10-31T15:20:07;8.85;;;2.95;;
46288;SDS011;63105;46.158;14.604;2022-10-31T15:22:32;8.00;;;3.15;;
46288;SDS011;63105;46.158;14.604;2022-10-31T15:24:58;5.13;;;2.50;;
46288;SDS011;63105;46.158;14.604;2022-10-31T15:27:23;9.88;;;4.18;;
46288;SDS011;63105;46.158;14.604;2022-10-31T15:29:50;10.25;;;5.88;;
46288;SDS011;63105;46.158;14.604;2022-10-31T15:32:25;8.27;;;3.67;;
46288;SDS011;63105;46.158;14.604;2022-10-31T15:34:51;13.40;;;4.60;;
46288;SDS011;63105;46.158;14.604;2022-10-31T15:37:18;8.55;;;3.67;;
46288;SDS011;63105;46.158;14.604;2022-10-31T15:39:44;15.50;;;6.15;;
46288;SDS011;63105;46.158;14.604;2022-10-31T15:42:23;14.90;;;5.25;;
46288;SDS011;63105;46.158;14.604;2022-10-31T15:44:52;33.95;;;16.02;;
46288;SDS011;63105;46.158;14.604;2022-10-31T15:47:18;34.53;;;16.13;;
46288;SDS011;63105;46.158;14.604;2022-10-31T15:49:48;102.93;;;38.30;;
46288;SDS011;63105;46.158;14.604;2022-10-31T15:54:53;12.60;;;5.80;;
46288;SDS011;63105;46.158;14.604;2022-10-31T15:57:20;10.57;;;4.70;;
46288;SDS011;63105;46.158;14.604;2022-10-31T15:59:47;13.77;;;5.70;;
46288;SDS011;63105;46.158;14.604;2022-10-31T16:02:13;52.53;;;23.63;;
46288;SDS011;63105;46.158;14.604;2022-10-31T16:04:47;34.03;;;15.23;;
46288;SDS011;63105;46.158;14.604;2022-10-31T16:07:13;23.33;;;10.52;;
46288;SDS011;63105;46.158;14.604;2022-10-31T16:09:49;73.65;;;30.48;;
46288;SDS011;63105;46.158;14.604;2022-10-31T16:12:14;88.43;;;40.28;;
46288;SDS011;63105;46.158;14.604;2022-10-31T16:14:40;71.40;;;39.45;;
46288;SDS011;63105;46.158;14.604;2022-10-31T16:17:06;34.47;;;16.40;;
46288;SDS011;63105;46.158;14.604;2022-10-31T16:19:36;34.03;;;15.60;;
46288;SDS011;63105;46.158;14.604;2022-10-31T16:22:08;37.75;;;16.27;;
46288;SDS011;63105;46.158;14.604;2022-10-31T16:24:44;36.05;;;15.90;;
46288;SDS011;63105;46.158;14.604;2022-10-31T16:27:29;19.35;;;9.05;;
46288;SDS011;63105;46.158;14.604;2022-10-31T16:29:56;32.05;;;14.27;;
46288;SDS011;63105;46.158;14.604;2022-10-31T16:34:59;35.28;;;16.88;;
46288;SDS011;63105;46.158;14.604;2022-10-31T16:37:25;36.92;;;16.48;;
46288;SDS011;63105;46.158;14.604;2022-10-31T16:39:50;34.63;;;15.93;;
46288;SDS011;63105;46.158;14.604;2022-10-31T16:42:15;29.17;;;14.07;;